Time;durP1;ratioP1;P1;durP2;ratioP2;P2;SDS_P1;SDS_P2;PMS_P1;PMS_P2;Temp;Humidity;BMP_temperature;BMP_pressure;BME280_temperature;BME280_humidity;BME280_pressure;Samples;Min_cycle;Max_cycle;Signal;HPM_P1;HPM_P2
2022/08/14 00:01:35;;;;;;;;;;;13.60;99.90;;;;;;5053489;28;19909;-67
2022/08/14 00:04:02;;;;;;;;;;;13.70;99.90;;;;;;5052837;28;19920;-68
2022/08/14 00:06:29;;;;;;;;;;;13.80;99.90;;;;;;5053815;28;19909;-67
2022/08/14 00:08:56;;;;;;;;;;;13.80;99.90;;;;;;5053789;28;19909;-68
2022/08/14 00:11:22;;;;;;;;;;;14.00;99.90;;;;;;5053474;28;19959;-68
2022/08/14 00:13:49;;;;;;;;;;;14.10;99.90;;;;;;5053554;28;19909;-68
2022/08/14 00:16:16;;;;;;;;;;;14.20;99.90;;;;;;5053373;28;19920;-68
2022/08/14 00:18:43;;;;;;;;;;;14.30;99.90;;;;;;5052898;28;19920;-68
2022/08/14 00:21:10;;;;;;;;;;;14.40;99.90;;;;;;5053453;28;19974;-68
2022/08/14 00:23:37;;;;;;;;;;;14.50;99.90;;;;;;5053399;28;20438;-67
2022/08/14 00:26:03;;;;;;;;;;;14.60;99.90;;;;;;5052977;28;19909;-68
2022/08/14 00:28:30;;;;;;;;;;;14.60;99.90;;;;;;5053332;28;20023;-68
2022/08/14 00:30:58;;;;;;;;;;;14.60;99.90;;;;;;5053367;28;20007;-68
2022/08/14 00:33:26;;;;;;;;;;;14.60;99.90;;;;;;5052794;28;19912;-68
2022/08/14 00:35:53;;;;;;;;;;;14.60;99.90;;;;;;5053234;28;20379;-68
2022/08/14 00:38:20;;;;;;;;;;;14.70;99.90;;;;;;5053080;28;19963;-68
2022/08/14 00:40:47;;;;;;;;;;;14.60;99.90;;;;;;5053258;28;19909;-68
2022/08/14 00:43:14;;;;;;;;;;;14.60;99.90;;;;;;5053034;28;19932;-68
2022/08/14 00:45:41;;;;;;;;;;;14.60;99.90;;;;;;5052832;28;19921;-68
2022/08/14 00:48:09;;;;;;;;;;;14.60;99.90;;;;;;5052514;28;19909;-68
2022/08/14 00:50:36;;;;;;;;;;;14.70;99.90;;;;;;5051731;28;19909;-68
2022/08/14 00:53:03;;;;;;;;;;;14.70;99.90;;;;;;5053120;28;19966;-68
2022/08/14 00:55:30;;;;;;;;;;;14.70;99.90;;;;;;5053008;28;19917;-68
2022/08/14 01:00:43;;;;;;;;;;;14.70;99.90;;;;;;5053315;28;19920;-68
2022/08/14 01:03:09;;;;;;;;;;;15.00;99.90;;;;;;5052406;28;20289;-68
2022/08/14 01:05:36;;;;;;;;;;;15.00;99.90;;;;;;5052964;28;19916;-68
2022/08/14 01:08:03;;;;;;;;;;;15.00;99.90;;;;;;5052653;28;20282;-68
2022/08/14 01:13:16;;;;;;;;;;;15.10;99.90;;;;;;5054557;28;20382;-68
2022/08/14 01:15:43;;;;;;;;;;;14.90;98.00;;;;;;5056738;28;20007;-68
2022/08/14 01:21:10;;;;;;;;;;;14.90;98.60;;;;;;5057094;28;20263;-68
2022/08/14 01:23:42;;;;;;;;;;;14.90;98.60;;;;;;5056655;28;19912;-68
2022/08/14 01:26:09;;;;;;;;;;;14.90;98.30;;;;;;5056343;28;19909;-67
2022/08/14 01:28:36;;;;;;;;;;;14.90;97.80;;;;;;5056599;28;20252;-68
2022/08/14 01:31:07;;;;;;;;;;;14.90;98.30;;;;;;5056562;28;19913;-68
2022/08/14 01:33:37;;;;;;;;;;;15.00;98.00;;;;;;5055960;28;20356;-68
2022/08/14 01:36:04;;;;;;;;;;;15.00;98.80;;;;;;5056236;28;19917;-68
2022/08/14 01:38:33;;;;;;;;;;;15.00;97.70;;;;;;5056348;28;19916;-68
2022/08/14 01:41:05;;;;;;;;;;;15.10;98.20;;;;;;5056303;28;19915;-68
2022/08/14 01:43:37;;;;;;;;;;;15.10;97.20;;;;;;5056315;28;20351;-68
2022/08/14 01:46:10;;;;;;;;;;;15.10;97.30;;;;;;5055769;28;19960;-68
2022/08/14 01:48:37;;;;;;;;;;;15.20;97.30;;;;;;5055685;28;19948;-68
2022/08/14 01:51:05;;;;;;;;;;;15.20;97.10;;;;;;5056015;28;19915;-68
2022/08/14 01:53:32;;;;;;;;;;;15.20;95.90;;;;;;5055950;28;19909;-68
2022/08/14 01:56:02;;;;;;;;;;;15.20;97.00;;;;;;5055992;28;19963;-68
2022/08/14 01:58:28;;;;;;;;;;;15.30;96.10;;;;;;5056069;28;19909;-68
2022/08/14 02:00:57;;;;;;;;;;;15.20;96.70;;;;;;5055980;28;19916;-68
2022/08/14 02:03:25;;;;;;;;;;;15.30;96.30;;;;;;5055519;28;19955;-68
2022/08/14 02:05:57;;;;;;;;;;;15.20;96.90;;;;;;5055932;28;20003;-68
2022/08/14 02:08:27;;;;;;;;;;;15.30;96.60;;;;;;5055725;28;19916;-68
2022/08/14 02:11:15;;;;;;;;;;;15.30;96.80;;;;;;5055579;28;19916;-68
2022/08/14 02:13:42;;;;;;;;;;;15.30;96.60;;;;;;5055798;28;19913;-68
2022/08/14 02:16:10;;;;;;;;;;;15.30;97.00;;;;;;5055434;28;19921;-68
2022/08/14 02:18:38;;;;;;;;;;;15.20;97.20;;;;;;5055501;28;19954;-68
2022/08/14 02:21:05;;;;;;;;;;;15.20;97.50;;;;;;5055626;28;19916;-68
2022/08/14 02:23:32;;;;;;;;;;;15.20;97.20;;;;;;5055182;28;19916;-68
2022/08/14 02:26:01;;;;;;;;;;;15.20;97.20;;;;;;5055315;28;20006;-68
2022/08/14 02:28:29;;;;;;;;;;;15.20;97.60;;;;;;5055534;28;19916;-68
2022/08/14 02:30:56;;;;;;;;;;;15.10;96.60;;;;;;5054161;28;19909;-68
2022/08/14 02:33:23;;;;;;;;;;;15.30;97.70;;;;;;5054927;28;19920;-69
2022/08/14 02:35:51;;;;;;;;;;;15.30;97.10;;;;;;5055230;28;19917;-68
2022/08/14 02:38:18;;;;;;;;;;;15.30;97.60;;;;;;5054986;28;20398;-68
2022/08/14 02:40:47;;;;;;;;;;;15.40;96.90;;;;;;5055082;28;19910;-68
2022/08/14 02:43:14;;;;;;;;;;;15.50;97.00;;;;;;5055496;28;20018;-68
2022/08/14 02:45:41;;;;;;;;;;;15.50;97.50;;;;;;5054923;28;19921;-68
2022/08/14 02:48:08;;;;;;;;;;;15.50;97.40;;;;;;5054511;28;19913;-68
2022/08/14 02:50:36;;;;;;;;;;;15.60;97.50;;;;;;5055116;28;19955;-68
2022/08/14 02:53:04;;;;;;;;;;;15.60;97.90;;;;;;5054535;28;20359;-67
2022/08/14 02:55:31;;;;;;;;;;;15.60;98.10;;;;;;5054964;28;20012;-68
2022/08/14 02:57:58;;;;;;;;;;;15.50;97.20;;;;;;5054910;28;20364;-68
2022/08/14 03:00:25;;;;;;;;;;;15.50;97.00;;;;;;5054557;28;19916;-68
2022/08/14 03:02:52;;;;;;;;;;;15.50;98.20;;;;;;5086860;28;19916;-68
2022/08/14 03:05:22;;;;;;;;;;;15.50;97.50;;;;;;5055552;28;20314;-68
2022/08/14 03:07:49;;;;;;;;;;;15.70;97.50;;;;;;5055135;28;19909;-68
2022/08/14 03:10:15;;;;;;;;;;;15.80;96.80;;;;;;5054583;28;19912;-67
2022/08/14 03:12:42;;;;;;;;;;;15.80;96.60;;;;;;5055052;28;20101;-69
2022/08/14 03:15:13;;;;;;;;;;;15.70;97.90;;;;;;5054789;28;19924;-68
2022/08/14 03:17:41;;;;;;;;;;;15.70;96.80;;;;;;5054129;28;20352;-68
2022/08/14 03:20:09;;;;;;;;;;;15.60;97.90;;;;;;5054368;28;19909;-68
2022/08/14 03:22:36;;;;;;;;;;;15.60;97.20;;;;;;5054781;28;19909;-68
2022/08/14 03:25:05;;;;;;;;;;;15.60;98.10;;;;;;5057023;28;19935;-67
2022/08/14 03:27:31;;;;;;;;;;;15.60;97.90;;;;;;5059673;28;19956;-68
2022/08/14 03:29:58;;;;;;;;;;;15.40;98.40;;;;;;5058022;28;20368;-67
2022/08/14 03:32:25;;;;;;;;;;;15.40;98.30;;;;;;5054869;28;19909;-68
2022/08/14 03:34:51;;;;;;;;;;;15.40;98.80;;;;;;5057731;28;19917;-68
2022/08/14 03:37:18;;;;;;;;;;;15.40;99.00;;;;;;5055524;28;19912;-68
2022/08/14 03:39:45;;;;;;;;;;;15.50;98.30;;;;;;5054239;28;19908;-68
2022/08/14 03:42:12;;;;;;;;;;;15.60;97.90;;;;;;5053656;28;19909;-68
2022/08/14 03:44:42;;;;;;;;;;;15.70;97.80;;;;;;5053844;28;19920;-67
2022/08/14 03:47:10;;;;;;;;;;;15.80;97.50;;;;;;5053386;28;20308;-67
2022/08/14 03:49:38;;;;;;;;;;;15.80;98.10;;;;;;5053962;28;19931;-67
2022/08/14 03:52:06;;;;;;;;;;;16.00;97.50;;;;;;5053722;28;19908;-67
2022/08/14 03:54:34;;;;;;;;;;;15.90;97.70;;;;;;5053714;28;19921;-67
2022/08/14 03:57:01;;;;;;;;;;;15.80;97.10;;;;;;5053672;28;20060;-68
2022/08/14 03:59:28;;;;;;;;;;;15.80;96.80;;;;;;5053674;28;19952;-68
2022/08/14 04:01:55;;;;;;;;;;;15.80;97.10;;;;;;5053103;28;19909;-68
2022/08/14 04:04:21;;;;;;;;;;;15.90;96.50;;;;;;5053279;28;19912;-67
2022/08/14 04:06:50;;;;;;;;;;;15.90;96.70;;;;;;5053844;28;19908;-68
2022/08/14 04:09:17;;;;;;;;;;;15.80;96.80;;;;;;5053440;28;19963;-67
2022/08/14 04:11:44;;;;;;;;;;;15.80;98.00;;;;;;5053525;28;19909;-67
2022/08/14 04:14:13;;;;;;;;;;;15.80;97.20;;;;;;5053298;28;19909;-67
2022/08/14 04:16:46;;;;;;;;;;;15.80;97.10;;;;;;5053005;28;20443;-67
2022/08/14 04:19:17;;;;;;;;;;;15.80;97.50;;;;;;5053562;28;19936;-67
2022/08/14 04:21:44;;;;;;;;;;;15.80;97.20;;;;;;5053452;28;19909;-67
2022/08/14 04:24:12;;;;;;;;;;;15.70;97.90;;;;;;5053141;28;20262;-68
2022/08/14 04:26:39;;;;;;;;;;;15.60;97.40;;;;;;5053152;28;20336;-67
2022/08/14 04:29:08;;;;;;;;;;;15.70;97.40;;;;;;5053265;28;19909;-68
2022/08/14 04:31:34;;;;;;;;;;;15.60;97.80;;;;;;5052747;28;19932;-68
2022/08/14 04:34:04;;;;;;;;;;;15.70;98.10;;;;;;5052987;28;19998;-67
2022/08/14 04:43:34;;;;;;;;;;;15.80;97.80;;;;;;5053325;28;19956;-67
2022/08/14 04:44:47;;;;;;;;;;;15.90;96.70;;;;;;5053090;28;19928;-67
2022/08/14 04:50:02;;;;;;;;;;;15.90;96.70;;;;;;5057505;28;19970;-67
2022/08/14 04:52:29;;;;;;;;;;;15.80;97.00;;;;;;5057470;28;19916;-67
2022/08/14 04:54:57;;;;;;;;;;;15.70;97.00;;;;;;5056860;28;19921;-67
2022/08/14 04:57:25;;;;;;;;;;;15.80;97.10;;;;;;5057212;28;19912;-67
2022/08/14 04:59:52;;;;;;;;;;;15.90;96.80;;;;;;5057012;28;20350;-67
2022/08/14 05:02:23;;;;;;;;;;;15.90;97.40;;;;;;5057329;28;19909;-67
2022/08/14 05:04:49;;;;;;;;;;;16.00;97.50;;;;;;5057127;28;19956;-67
2022/08/14 05:07:16;;;;;;;;;;;16.10;97.20;;;;;;5057228;28;19954;-67
2022/08/14 05:09:43;;;;;;;;;;;16.10;97.00;;;;;;5057049;28;19991;-68
2022/08/14 05:12:11;;;;;;;;;;;16.10;97.10;;;;;;5057026;28;20426;-67
2022/08/14 05:14:38;;;;;;;;;;;16.10;97.30;;;;;;5056833;28;19923;-67
2022/08/14 05:17:05;;;;;;;;;;;16.10;97.20;;;;;;5056846;28;19984;-67
2022/08/14 05:19:31;;;;;;;;;;;16.10;97.20;;;;;;5056915;28;20008;-67
2022/08/14 05:21:59;;;;;;;;;;;16.20;97.10;;;;;;5056842;28;19909;-67
2022/08/14 05:24:25;;;;;;;;;;;16.20;97.50;;;;;;5056565;28;19908;-67
2022/08/14 05:26:53;;;;;;;;;;;16.10;97.80;;;;;;5056618;28;20256;-68
2022/08/14 05:29:19;;;;;;;;;;;16.20;96.70;;;;;;5056880;28;19916;-67
2022/08/14 05:31:46;;;;;;;;;;;16.10;97.00;;;;;;5056778;28;19909;-67
2022/08/14 05:34:13;;;;;;;;;;;16.00;97.00;;;;;;5056363;28;19913;-67
2022/08/14 05:36:41;;;;;;;;;;;16.00;97.40;;;;;;5056610;28;20364;-67
2022/08/14 05:39:07;;;;;;;;;;;16.00;97.50;;;;;;5056689;28;19909;-67
2022/08/14 05:41:35;;;;;;;;;;;15.90;97.40;;;;;;5056430;28;19908;-67
2022/08/14 05:44:01;;;;;;;;;;;15.80;97.60;;;;;;5056412;28;20367;-67
2022/08/14 05:46:28;;;;;;;;;;;15.90;97.70;;;;;;5056310;28;19921;-67
2022/08/14 05:48:57;;;;;;;;;;;15.90;98.00;;;;;;5056560;28;19916;-68
2022/08/14 05:51:25;;;;;;;;;;;15.80;97.00;;;;;;5056226;28;19971;-67
2022/08/14 05:53:52;;;;;;;;;;;15.70;97.80;;;;;;5056056;28;19955;-67
2022/08/14 05:56:18;;;;;;;;;;;15.70;97.80;;;;;;5055928;28;19927;-68
2022/08/14 05:58:45;;;;;;;;;;;15.70;97.80;;;;;;5055475;28;20283;-67
2022/08/14 06:01:12;;;;;;;;;;;15.80;97.20;;;;;;5074398;28;19960;-68
2022/08/14 06:03:39;;;;;;;;;;;15.70;97.40;;;;;;5075395;28;19913;-67
2022/08/14 06:06:05;;;;;;;;;;;15.70;97.40;;;;;;5074666;28;20370;-67
2022/08/14 06:08:32;;;;;;;;;;;15.60;97.30;;;;;;5076019;28;19915;-67
2022/08/14 06:11:02;;;;;;;;;;;15.60;97.80;;;;;;5076100;28;19940;-67
2022/08/14 06:13:29;;;;;;;;;;;15.60;98.00;;;;;;5076485;28;19909;-67
2022/08/14 06:15:56;;;;;;;;;;;15.50;98.40;;;;;;5076687;28;19924;-68
2022/08/14 06:18:23;;;;;;;;;;;15.40;99.10;;;;;;5076863;28;19913;-67
2022/08/14 06:20:50;;;;;;;;;;;15.40;98.40;;;;;;5076215;28;19915;-68
2022/08/14 06:23:17;;;;;;;;;;;15.30;99.10;;;;;;5076059;28;19908;-68
2022/08/14 06:25:44;;;;;;;;;;;15.30;98.90;;;;;;5076345;28;19955;-68
2022/08/14 06:28:17;;;;;;;;;;;15.20;98.90;;;;;;5077685;28;19930;-67
2022/08/14 06:30:44;;;;;;;;;;;15.20;99.10;;;;;;5083066;28;19909;-68
2022/08/14 06:33:11;;;;;;;;;;;15.10;98.80;;;;;;5083267;28;20276;-68
2022/08/14 06:35:39;;;;;;;;;;;15.10;99.40;;;;;;5076027;28;19962;-68
2022/08/14 06:38:05;;;;;;;;;;;15.10;99.20;;;;;;5075675;28;19947;-68
2022/08/14 06:40:33;;;;;;;;;;;15.00;99.70;;;;;;5075743;28;19908;-67
2022/08/14 06:43:01;;;;;;;;;;;15.00;99.90;;;;;;5075830;28;20369;-68
2022/08/14 06:45:29;;;;;;;;;;;14.90;99.90;;;;;;5072365;28;19920;-68
2022/08/14 06:47:55;;;;;;;;;;;15.00;99.90;;;;;;5055763;28;19909;-67
2022/08/14 06:50:23;;;;;;;;;;;15.00;99.90;;;;;;5055374;28;19909;-67
2022/08/14 06:52:50;;;;;;;;;;;15.00;99.90;;;;;;5054866;28;19970;-68
2022/08/14 06:55:17;;;;;;;;;;;14.90;99.90;;;;;;5054905;28;20385;-68
2022/08/14 06:57:45;;;;;;;;;;;14.90;99.90;;;;;;5054986;28;20256;-67
2022/08/14 07:00:14;;;;;;;;;;;14.90;99.90;;;;;;5055057;28;19924;-67
2022/08/14 07:08:14;;;;;;;;;;;14.80;99.90;;;;;;5071217;28;19919;-68
2022/08/14 07:10:42;;;;;;;;;;;14.70;99.90;;;;;;5073297;28;19908;-68
2022/08/14 07:13:09;;;;;;;;;;;14.70;99.90;;;;;;5074533;28;19950;-68
2022/08/14 07:15:36;;;;;;;;;;;14.60;99.90;;;;;;5074914;28;19917;-68
2022/08/14 07:18:04;;;;;;;;;;;14.60;99.90;;;;;;5074477;28;19912;-68
2022/08/14 07:20:31;;;;;;;;;;;14.60;99.90;;;;;;5075056;28;19999;-69
2022/08/14 07:23:02;;;;;;;;;;;14.70;99.80;;;;;;5074417;28;19915;-68
2022/08/14 07:25:28;;;;;;;;;;;14.70;99.90;;;;;;5074279;28;20007;-67
2022/08/14 07:27:56;;;;;;;;;;;14.60;99.80;;;;;;5074021;28;19908;-68
2022/08/14 07:30:23;;;;;;;;;;;14.60;99.90;;;;;;5074032;28;19936;-68
2022/08/14 07:32:50;;;;;;;;;;;14.60;99.90;;;;;;5074696;28;20007;-68
2022/08/14 07:35:17;;;;;;;;;;;14.60;99.90;;;;;;5074257;28;20007;-68
2022/08/14 07:37:46;;;;;;;;;;;14.50;99.90;;;;;;5073750;28;19962;-68
2022/08/14 07:40:13;;;;;;;;;;;14.40;99.90;;;;;;5073964;28;19920;-68
2022/08/14 07:42:40;;;;;;;;;;;14.50;99.90;;;;;;5074240;28;20378;-67
2022/08/14 07:45:07;;;;;;;;;;;14.50;99.90;;;;;;5073861;28;19995;-68
2022/08/14 07:47:38;;;;;;;;;;;14.40;99.90;;;;;;5073856;28;19992;-68
2022/08/14 07:50:10;;;;;;;;;;;14.40;99.90;;;;;;5071211;28;19908;-68
2022/08/14 07:52:37;;;;;;;;;;;14.30;99.90;;;;;;5071134;28;19962;-68
2022/08/14 07:55:06;;;;;;;;;;;14.20;99.90;;;;;;5071723;28;19920;-68
2022/08/14 07:57:32;;;;;;;;;;;14.20;99.90;;;;;;5072030;28;19935;-68
2022/08/14 08:00:00;;;;;;;;;;;14.10;99.90;;;;;;5071964;28;19916;-68
2022/08/14 08:02:29;;;;;;;;;;;14.10;99.90;;;;;;5071329;28;20271;-67
2022/08/14 08:04:57;;;;;;;;;;;14.10;99.90;;;;;;5071359;28;19912;-67
2022/08/14 08:07:24;;;;;;;;;;;14.10;99.90;;;;;;5071110;28;19912;-68
2022/08/14 08:09:55;;;;;;;;;;;14.10;99.90;;;;;;5071517;28;20313;-67
2022/08/14 08:12:22;;;;;;;;;;;14.10;99.90;;;;;;5070888;28;20250;-68
2022/08/14 08:14:50;;;;;;;;;;;14.10;99.90;;;;;;5071082;28;19924;-68
2022/08/14 08:17:22;;;;;;;;;;;14.00;99.90;;;;;;5071442;28;19914;-68
2022/08/14 08:19:48;;;;;;;;;;;14.00;99.90;;;;;;5071365;28;20343;-68
2022/08/14 08:22:15;;;;;;;;;;;13.90;99.90;;;;;;5070393;28;19912;-68
2022/08/14 08:24:42;;;;;;;;;;;13.90;99.90;;;;;;5071268;28;19912;-67
2022/08/14 08:27:19;;;;;;;;;;;13.90;99.90;;;;;;5070885;28;19913;-67
2022/08/14 08:29:46;;;;;;;;;;;13.90;99.90;;;;;;5071302;28;19915;-67
2022/08/14 08:32:13;;;;;;;;;;;13.90;99.90;;;;;;5070896;28;19912;-67
2022/08/14 08:34:47;;;;;;;;;;;13.80;99.90;;;;;;5071177;28;19924;-67
2022/08/14 08:37:14;;;;;;;;;;;13.80;99.90;;;;;;5070783;28;19908;-67
2022/08/14 08:39:45;;;;;;;;;;;13.80;99.90;;;;;;5071314;28;19913;-68
2022/08/14 08:42:12;;;;;;;;;;;13.80;99.90;;;;;;5070621;28;19986;-68
2022/08/14 08:44:39;;;;;;;;;;;13.80;99.90;;;;;;5069654;28;19916;-68
2022/08/14 08:47:06;;;;;;;;;;;13.80;99.90;;;;;;5070915;28;19913;-68
2022/08/14 08:49:41;;;;;;;;;;;13.70;99.90;;;;;;5071144;28;19923;-68
2022/08/14 08:52:11;;;;;;;;;;;13.70;99.90;;;;;;5070579;28;19962;-68
2022/08/14 08:54:38;;;;;;;;;;;13.70;99.90;;;;;;5070263;28;19913;-67
2022/08/14 08:57:11;;;;;;;;;;;13.60;99.90;;;;;;5070044;28;19912;-67
2022/08/14 08:59:38;;;;;;;;;;;13.60;99.90;;;;;;5071124;28;19909;-67
2022/08/14 09:02:06;;;;;;;;;;;13.60;99.90;;;;;;5070785;28;19944;-68
2022/08/14 09:04:38;;;;;;;;;;;13.60;99.90;;;;;;5071789;28;19919;-67
2022/08/14 09:07:05;;;;;;;;;;;13.60;99.90;;;;;;5073223;28;20351;-68
2022/08/14 09:09:32;;;;;;;;;;;13.60;99.90;;;;;;5073114;28;20278;-69
2022/08/14 09:11:59;;;;;;;;;;;13.60;99.90;;;;;;5073023;28;20351;-68
2022/08/14 09:14:28;;;;;;;;;;;13.50;99.90;;;;;;5072691;28;19913;-68
2022/08/14 09:16:56;;;;;;;;;;;13.50;99.90;;;;;;5072874;28;20014;-68
2022/08/14 09:19:23;;;;;;;;;;;13.50;99.90;;;;;;5064270;28;20379;-68
2022/08/14 09:21:49;;;;;;;;;;;13.50;99.90;;;;;;5052785;28;19938;-68
2022/08/14 09:24:16;;;;;;;;;;;13.50;99.90;;;;;;5052444;28;19913;-68
2022/08/14 09:26:44;;;;;;;;;;;13.50;99.90;;;;;;5052773;28;19916;-68
2022/08/14 09:29:11;;;;;;;;;;;13.40;99.90;;;;;;5052773;28;20325;-68
2022/08/14 09:31:50;;;;;;;;;;;13.40;99.90;;;;;;5052212;28;19909;-68
2022/08/14 09:34:41;;;;;;;;;;;13.40;99.90;;;;;;5053834;28;20347;-68
2022/08/14 09:37:25;;;;;;;;;;;13.30;99.90;;;;;;5056329;28;19923;-67
2022/08/14 09:40:07;;;;;;;;;;;13.30;99.90;;;;;;5056279;28;20275;-67
2022/08/14 09:42:43;;;;;;;;;;;13.30;99.90;;;;;;5056482;28;19909;-67
2022/08/14 09:45:15;;;;;;;;;;;13.20;99.90;;;;;;5055526;28;20394;-68
2022/08/14 09:47:49;;;;;;;;;;;13.20;99.90;;;;;;5056083;28;19908;-68
2022/08/14 09:50:16;;;;;;;;;;;13.20;99.90;;;;;;5056130;28;19909;-68
2022/08/14 09:52:49;;;;;;;;;;;13.20;99.90;;;;;;5056188;28;19916;-68
2022/08/14 09:55:19;;;;;;;;;;;13.20;99.90;;;;;;5055970;28;19920;-68
2022/08/14 09:57:46;;;;;;;;;;;13.20;99.90;;;;;;5056032;28;19909;-67
2022/08/14 10:00:15;;;;;;;;;;;13.20;99.90;;;;;;5055206;28;19913;-67
2022/08/14 10:02:52;;;;;;;;;;;13.10;99.90;;;;;;5055971;28;19987;-67
2022/08/14 10:05:29;;;;;;;;;;;13.10;99.90;;;;;;5055984;28;20363;-68
2022/08/14 10:07:57;;;;;;;;;;;13.00;99.90;;;;;;5055879;28;19978;-68
2022/08/14 10:10:40;;;;;;;;;;;13.00;99.90;;;;;;5055588;28;19917;-67
2022/08/14 10:13:19;;;;;;;;;;;13.00;99.90;;;;;;5055791;28;19916;-68
2022/08/14 10:15:48;;;;;;;;;;;12.90;99.90;;;;;;5055108;28;19923;-67
2022/08/14 10:18:16;;;;;;;;;;;12.90;99.90;;;;;;5055438;28;19909;-67
2022/08/14 10:20:56;;;;;;;;;;;12.90;99.90;;;;;;5055703;28;20008;-68
2022/08/14 10:23:23;;;;;;;;;;;12.90;99.90;;;;;;5055564;28;19956;-67
2022/08/14 10:25:52;;;;;;;;;;;12.80;99.90;;;;;;5055653;28;19908;-67
2022/08/14 10:28:21;;;;;;;;;;;12.80;99.90;;;;;;5055508;28;19951;-67
2022/08/14 10:30:52;;;;;;;;;;;12.80;99.90;;;;;;5055017;28;19912;-67
2022/08/14 10:33:29;;;;;;;;;;;12.70;99.90;;;;;;5055491;28;20434;-67
2022/08/14 10:35:59;;;;;;;;;;;12.60;99.90;;;;;;5055233;28;19924;-68
2022/08/14 10:38:27;;;;;;;;;;;12.50;99.90;;;;;;5055010;28;20007;-67
2022/08/14 10:40:53;;;;;;;;;;;12.50;99.90;;;;;;5055417;28;19913;-68
2022/08/14 10:43:24;;;;;;;;;;;12.50;99.90;;;;;;5055460;28;19951;-67
2022/08/14 10:45:56;;;;;;;;;;;12.50;99.90;;;;;;5054356;28;19927;-67
2022/08/14 10:48:23;;;;;;;;;;;12.40;99.90;;;;;;5055077;28;19920;-67
2022/08/14 10:50:52;;;;;;;;;;;12.50;99.90;;;;;;5055163;28;19915;-67
2022/08/14 10:53:31;;;;;;;;;;;12.50;99.90;;;;;;5054889;28;19934;-67
2022/08/14 10:56:00;;;;;;;;;;;12.50;99.90;;;;;;5054897;28;19953;-68
2022/08/14 10:58:28;;;;;;;;;;;12.40;99.90;;;;;;5054869;28;19913;-67
2022/08/14 11:00:57;;;;;;;;;;;12.40;99.90;;;;;;5054789;28;20007;-67
2022/08/14 11:03:24;;;;;;;;;;;12.40;99.90;;;;;;5055007;28;19915;-68
2022/08/14 11:05:51;;;;;;;;;;;12.30;99.90;;;;;;5054847;28;19954;-67
2022/08/14 11:08:29;;;;;;;;;;;12.30;99.90;;;;;;5054381;28;19916;-68
2022/08/14 11:10:58;;;;;;;;;;;12.20;99.90;;;;;;5054723;28;19943;-67
2022/08/14 11:13:29;;;;;;;;;;;12.20;99.90;;;;;;5054127;28;20050;-67
2022/08/14 11:16:00;;;;;;;;;;;12.10;99.90;;;;;;5065592;28;20415;-67
2022/08/14 11:18:29;;;;;;;;;;;12.10;99.90;;;;;;5074804;28;20445;-67
2022/08/14 11:20:58;;;;;;;;;;;12.20;99.90;;;;;;5074703;28;19915;-67
2022/08/14 11:23:28;;;;;;;;;;;12.20;99.90;;;;;;5074604;28;19915;-67
2022/08/14 11:25:56;;;;;;;;;;;12.20;99.90;;;;;;5074759;28;19954;-67
2022/08/14 11:28:24;;;;;;;;;;;12.20;99.90;;;;;;5074125;28;19908;-68
2022/08/14 11:30:51;;;;;;;;;;;12.20;99.90;;;;;;5074297;28;19915;-68
2022/08/14 11:33:31;;;;;;;;;;;12.20;99.90;;;;;;5074300;28;20385;-68
2022/08/14 11:36:01;;;;;;;;;;;12.20;99.90;;;;;;5074170;28;19956;-68
2022/08/14 11:38:34;;;;;;;;;;;12.20;99.90;;;;;;5074395;28;19944;-68
2022/08/14 11:41:01;;;;;;;;;;;12.20;99.90;;;;;;5074258;28;20247;-68
2022/08/14 11:43:28;;;;;;;;;;;12.20;99.90;;;;;;5073537;28;19913;-68
2022/08/14 11:45:55;;;;;;;;;;;12.20;99.90;;;;;;5080112;28;19920;-68
2022/08/14 11:48:23;;;;;;;;;;;12.20;99.90;;;;;;5085928;28;20395;-67
2022/08/14 11:50:53;;;;;;;;;;;12.20;99.90;;;;;;5073995;28;20355;-68
2022/08/14 11:53:20;;;;;;;;;;;12.10;99.90;;;;;;5073763;28;19922;-68
2022/08/14 11:55:53;;;;;;;;;;;12.20;99.90;;;;;;5073821;28;19925;-68
2022/08/14 11:58:24;;;;;;;;;;;12.10;99.90;;;;;;5073320;28;19966;-68
2022/08/14 12:00:58;;;;;;;;;;;12.10;99.90;;;;;;5073320;28;19916;-68
2022/08/14 12:03:44;;;;;;;;;;;12.10;99.90;;;;;;5071971;28;20419;-68
2022/08/14 12:06:15;;;;;;;;;;;12.10;99.90;;;;;;5071648;28;19909;-68
2022/08/14 12:08:42;;;;;;;;;;;12.10;99.90;;;;;;5071687;28;20015;-68
2022/08/14 12:11:12;;;;;;;;;;;12.20;99.90;;;;;;5071754;28;19909;-68
2022/08/14 12:13:47;;;;;;;;;;;12.20;99.90;;;;;;5071680;28;19958;-68
2022/08/14 12:16:20;;;;;;;;;;;12.10;99.90;;;;;;5071400;28;19966;-67
2022/08/14 12:18:49;;;;;;;;;;;12.10;99.90;;;;;;5072834;28;19908;-68
2022/08/14 12:21:17;;;;;;;;;;;12.20;99.90;;;;;;5073287;28;19909;-68
2022/08/14 12:23:45;;;;;;;;;;;12.30;99.90;;;;;;5073391;28;20366;-68
2022/08/14 12:26:19;;;;;;;;;;;12.30;99.90;;;;;;5073504;28;19952;-68
2022/08/14 12:28:50;;;;;;;;;;;12.30;99.90;;;;;;5073581;28;19952;-68
2022/08/14 12:31:18;;;;;;;;;;;12.30;99.90;;;;;;5073466;28;19908;-68
2022/08/14 12:33:58;;;;;;;;;;;12.30;99.90;;;;;;5072640;28;19975;-68
2022/08/14 12:36:34;;;;;;;;;;;12.30;99.90;;;;;;5073179;28;20015;-68
2022/08/14 12:39:05;;;;;;;;;;;12.30;99.90;;;;;;5073316;28;19909;-67
2022/08/14 12:41:37;;;;;;;;;;;12.30;99.90;;;;;;5073421;28;19969;-68
2022/08/14 12:44:05;;;;;;;;;;;12.20;99.90;;;;;;5073247;28;19919;-67
2022/08/14 12:46:34;;;;;;;;;;;12.20;99.90;;;;;;5073360;28;20058;-67
2022/08/14 12:49:08;;;;;;;;;;;12.30;99.90;;;;;;5073255;28;19995;-67
2022/08/14 12:51:35;;;;;;;;;;;12.30;99.90;;;;;;5073347;28;19951;-67
2022/08/14 12:54:13;;;;;;;;;;;12.30;99.90;;;;;;5073002;28;19908;-68
2022/08/14 12:56:40;;;;;;;;;;;12.20;99.90;;;;;;5073367;28;19917;-67
2022/08/14 12:59:06;;;;;;;;;;;12.30;99.90;;;;;;5073207;28;20005;-68
2022/08/14 13:01:34;;;;;;;;;;;12.30;99.90;;;;;;5073111;28;19912;-68
2022/08/14 13:04:07;;;;;;;;;;;12.20;99.90;;;;;;5073055;28;19908;-68
2022/08/14 13:06:35;;;;;;;;;;;12.20;99.90;;;;;;5073205;28;19916;-68
2022/08/14 13:09:03;;;;;;;;;;;12.20;99.90;;;;;;5073983;28;19908;-68
2022/08/14 13:11:36;;;;;;;;;;;12.20;99.90;;;;;;5077194;28;19908;-68
2022/08/14 13:14:03;;;;;;;;;;;12.20;99.90;;;;;;5076990;28;20478;-67
2022/08/14 13:16:30;;;;;;;;;;;12.20;99.90;;;;;;5076890;28;19962;-67
2022/08/14 13:19:00;;;;;;;;;;;12.20;99.90;;;;;;5077024;28;19944;-68
2022/08/14 13:21:30;;;;;;;;;;;12.20;99.90;;;;;;5076840;28;20011;-68
2022/08/14 13:23:57;;;;;;;;;;;12.20;99.90;;;;;;5076647;28;20347;-68
2022/08/14 13:26:24;;;;;;;;;;;12.20;99.90;;;;;;5076590;28;19915;-68
2022/08/14 13:28:52;;;;;;;;;;;12.20;99.90;;;;;;5076777;28;19908;-67
2022/08/14 13:31:22;;;;;;;;;;;12.20;99.90;;;;;;5076801;28;19908;-68
2022/08/14 13:33:50;;;;;;;;;;;12.20;99.90;;;;;;5076688;28;19952;-68
2022/08/14 13:36:17;;;;;;;;;;;12.20;99.90;;;;;;5076292;28;19916;-68
2022/08/14 13:38:43;;;;;;;;;;;12.20;99.90;;;;;;5076387;28;19917;-68
2022/08/14 13:41:11;;;;;;;;;;;12.20;99.90;;;;;;5076484;28;20363;-67
2022/08/14 13:43:38;;;;;;;;;;;12.20;99.90;;;;;;5076463;28;19908;-68
2022/08/14 13:46:05;;;;;;;;;;;12.20;99.90;;;;;;5076119;28;19943;-68
2022/08/14 13:48:32;;;;;;;;;;;12.10;99.90;;;;;;5076545;28;19962;-67
2022/08/14 13:50:59;;;;;;;;;;;12.20;99.90;;;;;;5076328;28;19947;-67
2022/08/14 13:53:28;;;;;;;;;;;12.10;99.90;;;;;;5076177;28;19909;-68
2022/08/14 13:55:55;;;;;;;;;;;12.10;99.90;;;;;;5076216;28;19916;-67
2022/08/14 13:58:22;;;;;;;;;;;12.10;99.90;;;;;;5075992;28;20271;-67
2022/08/14 14:00:52;;;;;;;;;;;12.10;99.90;;;;;;5076121;28;19909;-68
2022/08/14 14:03:20;;;;;;;;;;;12.10;99.90;;;;;;5076226;28;19912;-68
2022/08/14 14:05:49;;;;;;;;;;;12.10;99.90;;;;;;5076020;28;19915;-68
2022/08/14 14:08:16;;;;;;;;;;;12.10;99.90;;;;;;5075705;28;20274;-67
2022/08/14 14:10:43;;;;;;;;;;;12.00;99.90;;;;;;5075956;28;19916;-67
2022/08/14 14:13:09;;;;;;;;;;;12.00;99.90;;;;;;5076019;28;19909;-68
2022/08/14 14:15:36;;;;;;;;;;;11.90;99.90;;;;;;5075975;28;19970;-68
2022/08/14 14:18:03;;;;;;;;;;;11.90;99.90;;;;;;5075735;28;19912;-67
2022/08/14 14:20:30;;;;;;;;;;;11.90;99.90;;;;;;5074109;28;20015;-68
2022/08/14 14:22:57;;;;;;;;;;;11.90;99.90;;;;;;5075847;28;19916;-68
2022/08/14 14:25:24;;;;;;;;;;;11.90;99.90;;;;;;5075685;28;19909;-67
2022/08/14 14:27:51;;;;;;;;;;;11.90;99.90;;;;;;5075596;28;19909;-67
2022/08/14 14:30:18;;;;;;;;;;;11.90;99.90;;;;;;5075541;28;19948;-67
2022/08/14 14:32:47;;;;;;;;;;;11.80;99.90;;;;;;5075737;28;19915;-68
2022/08/14 14:35:16;;;;;;;;;;;11.80;99.90;;;;;;5075429;28;19928;-67
2022/08/14 14:37:43;;;;;;;;;;;11.70;99.90;;;;;;5075472;28;19913;-68
2022/08/14 14:40:14;;;;;;;;;;;11.70;99.90;;;;;;5075238;28;19915;-68
2022/08/14 14:42:45;;;;;;;;;;;11.70;99.90;;;;;;5075480;28;20007;-68
2022/08/14 14:45:13;;;;;;;;;;;11.70;99.90;;;;;;5075237;28;19920;-68
2022/08/14 14:47:45;;;;;;;;;;;11.60;99.90;;;;;;5075286;28;19919;-68